createdAt,value
2023-02-22T00:01:41.401Z,22.55
2023-02-22T00:04:16.089Z,21.88
2023-02-22T00:06:56.388Z,23.20
2023-02-22T00:09:36.477Z,21.77
2023-02-22T00:12:16.403Z,22.80
2023-02-22T00:14:57.429Z,19.23
2023-02-22T00:17:30.713Z,20.30
2023-02-22T00:20:21.381Z,21.05
2023-02-22T00:22:54.553Z,20.55
2023-02-22T00:25:42.416Z,21.55
2023-02-22T00:28:15.490Z,18.90
2023-02-22T00:31:02.393Z,20.25
2023-02-22T00:33:43.405Z,19.70
2023-02-22T00:36:37.404Z,18.52
2023-02-22T00:39:31.432Z,20.45
2023-02-22T00:42:18.408Z,22.58
2023-02-22T00:44:51.508Z,21.85
2023-02-22T00:47:38.389Z,20.83
2023-02-22T00:50:12.510Z,20.80
2023-02-22T00:53:00.405Z,21.70
2023-02-22T00:55:43.402Z,21.40
2023-02-22T00:58:31.422Z,21.17
2023-02-22T01:01:11.440Z,22.55
2023-02-22T01:03:58.409Z,21.88
2023-02-22T01:06:38.442Z,20.60
2023-02-22T01:09:25.422Z,19.98
2023-02-22T01:12:09.424Z,20.52
2023-02-22T01:15:06.411Z,20.60
2023-02-22T01:17:53.695Z,21.52
2023-02-22T01:20:29.509Z,23.10
2023-02-22T01:23:17.561Z,18.90
2023-02-22T01:25:57.411Z,21.55
2023-02-22T01:28:52.416Z,19.95
2023-02-22T01:31:46.497Z,21.83
2023-02-22T01:34:33.460Z,21.83
2023-02-22T01:37:07.608Z,19.88
2023-02-22T01:39:54.400Z,19.85
2023-02-22T01:42:27.566Z,20.83
2023-02-22T01:45:41.515Z,19.20
2023-02-22T01:48:26.429Z,20.50
2023-02-22T01:51:27.436Z,22.33
2023-02-22T01:54:20.436Z,21.58
2023-02-22T01:57:15.430Z,20.20
2023-02-22T02:00:00.449Z,20.15
2023-02-22T02:02:59.481Z,20.05
2023-02-22T02:05:46.411Z,20.65
2023-02-22T02:08:39.524Z,21.33
2023-02-22T02:11:29.448Z,19.33
2023-02-22T02:14:11.437Z,20.27
2023-02-22T02:17:10.513Z,21.33
2023-02-22T02:20:15.428Z,19.95
2023-02-22T02:23:01.018Z,22.42
2023-02-22T02:26:10.438Z,20.75
2023-02-22T02:28:58.588Z,18.85
2023-02-22T02:32:00.639Z,17.63
2023-02-22T02:35:01.548Z,18.50
2023-02-22T02:38:23.468Z,19.25
2023-02-22T02:41:18.755Z,20.00
2023-02-22T02:44:42.530Z,19.50
2023-02-22T02:47:37.458Z,19.25
2023-02-22T02:50:20.592Z,19.65
2023-02-22T02:53:11.454Z,18.83
2023-02-22T02:55:51.435Z,17.90
2023-02-22T02:58:38.426Z,18.27
2023-02-22T03:01:18.805Z,18.70
2023-02-22T03:04:19.480Z,16.90
2023-02-22T03:07:14.495Z,18.83
2023-02-22T03:10:06.541Z,19.92
2023-02-22T03:13:15.484Z,18.52
2023-02-22T03:16:34.475Z,18.60
2023-02-22T03:19:31.479Z,19.30
2023-02-22T03:22:20.449Z,16.88
2023-02-22T03:25:49.459Z,18.85
2023-02-22T03:28:47.529Z,18.25
2023-02-22T03:31:51.514Z,19.90
2023-02-22T03:34:54.445Z,21.67
2023-02-22T03:37:54.453Z,18.55
2023-02-22T03:40:52.515Z,20.05
2023-02-22T03:43:45.466Z,18.90
2023-02-22T03:46:27.514Z,19.90
2023-02-22T03:49:24.465Z,19.67
2023-02-22T03:52:04.482Z,20.27
2023-02-22T03:54:51.475Z,20.08
2023-02-22T03:57:55.495Z,20.17
2023-02-22T04:00:51.472Z,19.83
2023-02-22T04:03:38.553Z,19.52
2023-02-22T04:06:22.511Z,20.73
2023-02-22T04:09:16.506Z,20.27
2023-02-22T04:12:18.516Z,20.35
2023-02-22T04:15:12.523Z,21.58
2023-02-22T04:18:06.478Z,19.50
2023-02-22T04:20:53.466Z,20.70
2023-02-22T04:23:27.014Z,19.88
2023-02-22T04:26:13.475Z,19.48
2023-02-22T04:28:46.566Z,20.85
2023-02-22T04:31:33.552Z,21.05
2023-02-22T04:34:07.567Z,20.33
2023-02-22T04:36:54.487Z,20.63
2023-02-22T04:39:35.523Z,20.60
2023-02-22T04:42:22.476Z,19.10
2023-02-22T04:45:02.512Z,19.48
2023-02-22T04:47:56.542Z,19.63
2023-02-22T04:50:43.501Z,20.63
2023-02-22T04:53:24.498Z,18.00
2023-02-22T04:56:11.499Z,19.45
2023-02-22T04:58:44.671Z,18.80
2023-02-22T05:01:31.485Z,19.45
2023-02-22T05:04:04.604Z,19.05
2023-02-22T05:06:52.737Z,18.02
2023-02-22T05:09:34.515Z,19.70
2023-02-22T05:12:28.505Z,18.20
2023-02-22T05:15:22.489Z,19.20
2023-02-22T05:18:09.494Z,20.42
2023-02-22T05:20:49.518Z,18.85
2023-02-22T05:23:43.509Z,20.58
2023-02-22T05:26:30.492Z,20.83
2023-02-22T05:29:03.659Z,19.30
2023-02-22T05:31:50.603Z,18.45
2023-02-22T05:34:30.486Z,18.98
2023-02-22T05:37:17.504Z,18.48
2023-02-22T05:39:51.026Z,20.33
2023-02-22T05:42:37.525Z,18.58
2023-02-22T05:45:10.633Z,18.27
2023-02-22T05:47:58.491Z,20.13
2023-02-22T05:50:39.520Z,22.25
2023-02-22T05:53:33.531Z,20.40
2023-02-22T05:56:20.525Z,17.50
2023-02-22T05:58:53.610Z,18.38
2023-02-22T06:01:40.657Z,17.75
2023-02-22T06:04:13.611Z,17.00
2023-02-22T06:07:00.540Z,16.98
2023-02-22T06:09:33.644Z,16.63
2023-02-22T06:12:20.548Z,16.83
2023-02-22T06:15:00.521Z,17.58
2023-02-22T06:17:48.512Z,14.88
2023-02-22T06:20:31.512Z,16.98
2023-02-22T06:23:18.520Z,16.98
2023-02-22T06:25:58.499Z,18.10
2023-02-22T06:28:45.532Z,18.00
2023-02-22T06:31:18.981Z,16.45
2023-02-22T06:34:05.538Z,13.82
2023-02-22T06:36:45.520Z,17.65
2023-02-22T06:39:32.518Z,16.83
2023-02-22T06:42:06.688Z,16.75
2023-02-22T06:44:53.524Z,16.25
2023-02-22T06:47:33.587Z,20.88
2023-02-22T06:50:30.524Z,18.50
2023-02-22T06:53:04.706Z,19.08
2023-02-22T06:55:51.561Z,18.92
2023-02-22T06:58:31.530Z,18.13
2023-02-22T07:01:19.831Z,17.40
2023-02-22T07:03:55.662Z,18.25
2023-02-22T07:06:42.544Z,18.48
2023-02-22T07:09:22.554Z,18.25
2023-02-22T07:12:09.525Z,19.13
2023-02-22T07:14:42.700Z,24.92
2023-02-22T07:17:29.536Z,26.50
2023-02-22T07:20:09.562Z,23.65
2023-02-22T07:23:03.556Z,19.25
2023-02-22T07:25:50.534Z,20.42
2023-02-22T07:28:23.652Z,20.52
2023-02-22T07:31:11.551Z,18.48
2023-02-22T07:33:44.662Z,18.73
2023-02-22T07:36:31.555Z,16.70
2023-02-22T07:39:04.675Z,17.23
2023-02-22T07:41:51.570Z,17.15
2023-02-22T07:44:24.638Z,19.13
2023-02-22T07:47:11.583Z,17.42
2023-02-22T07:49:51.546Z,17.77
2023-02-22T07:52:38.573Z,16.75
2023-02-22T07:55:13.274Z,13.88
2023-02-22T07:58:01.549Z,16.40
2023-02-22T08:00:47.585Z,17.35
2023-02-22T08:03:45.573Z,18.35
2023-02-22T08:06:32.564Z,14.85
2023-02-22T08:09:05.667Z,13.82
2023-02-22T08:11:52.587Z,14.30
2023-02-22T08:14:25.676Z,15.48
2023-02-22T08:17:12.595Z,14.63
2023-02-22T08:19:45.673Z,14.45
2023-02-22T08:22:34.555Z,15.25
2023-02-22T08:25:07.682Z,14.65
2023-02-22T08:27:55.572Z,14.23
2023-02-22T08:30:39.720Z,15.60
2023-02-22T08:33:28.568Z,17.73
2023-02-22T08:36:01.946Z,15.98
2023-02-22T08:38:48.575Z,15.63
2023-02-22T08:41:28.568Z,17.45
2023-02-22T08:44:22.578Z,16.15
2023-02-22T08:47:09.586Z,15.52
2023-02-22T08:49:42.665Z,13.65
2023-02-22T08:52:29.579Z,15.27
2023-02-22T08:55:09.576Z,15.00
2023-02-22T08:58:03.629Z,14.00
2023-02-22T09:00:57.581Z,12.63
2023-02-22T09:03:44.667Z,15.63
2023-02-22T09:06:17.752Z,15.98
2023-02-22T09:09:04.577Z,15.65
2023-02-22T09:11:37.687Z,14.77
2023-02-22T09:14:24.565Z,15.95
2023-02-22T09:16:57.685Z,17.60
2023-02-22T09:19:44.578Z,16.83
2023-02-22T09:22:24.582Z,18.42
2023-02-22T09:25:21.581Z,15.98
2023-02-22T09:28:16.592Z,16.30
2023-02-22T09:31:03.595Z,18.20
2023-02-22T09:33:36.689Z,19.27
2023-02-22T09:36:25.188Z,16.80
2023-02-22T09:39:06.588Z,19.90
2023-02-22T09:42:05.584Z,17.08
2023-02-22T09:45:01.605Z,18.02
2023-02-22T09:48:15.241Z,16.33
2023-02-22T09:51:05.590Z,16.80
2023-02-22T09:53:50.631Z,18.48
2023-02-22T09:56:26.715Z,18.55
2023-02-22T09:59:18.616Z,16.60
2023-02-22T10:02:03.574Z,17.58
2023-02-22T10:04:59.619Z,19.15
2023-02-22T10:07:39.715Z,18.27
2023-02-22T10:10:29.610Z,18.35
2023-02-22T10:13:19.722Z,19.70
2023-02-22T10:16:13.711Z,18.77
2023-02-22T10:19:14.824Z,16.98
2023-02-22T10:22:11.646Z,16.50
2023-02-22T10:25:02.609Z,16.95
2023-02-22T10:28:04.595Z,17.60
2023-02-22T10:31:03.803Z,19.10
2023-02-22T10:33:41.744Z,17.50
2023-02-22T10:36:31.634Z,17.17
2023-02-22T10:39:32.743Z,17.02
2023-02-22T10:42:19.657Z,17.92
2023-02-22T10:44:52.713Z,17.20
2023-02-22T10:47:40.611Z,18.13
2023-02-22T10:50:14.763Z,17.90
2023-02-22T10:53:01.632Z,16.25
2023-02-22T10:55:42.642Z,15.93
2023-02-22T10:58:36.635Z,17.73
2023-02-22T11:01:47.759Z,16.33
2023-02-22T11:04:41.624Z,18.85
2023-02-22T11:07:49.645Z,17.73
2023-02-22T11:10:45.661Z,17.58
2023-02-22T11:13:39.634Z,16.35
2023-02-22T11:16:49.673Z,16.35
2023-02-22T11:19:45.622Z,16.10
2023-02-22T11:22:47.671Z,16.35
2023-02-22T11:25:27.841Z,17.77
2023-02-22T11:28:37.629Z,16.52
2023-02-22T11:31:30.656Z,16.60
2023-02-22T11:34:41.648Z,17.48
2023-02-22T11:37:35.636Z,15.85
2023-02-22T11:40:36.653Z,17.17
2023-02-22T11:43:25.653Z,17.42
2023-02-22T11:46:05.890Z,18.15
2023-02-22T11:49:02.673Z,18.70
2023-02-22T11:52:20.720Z,18.70
2023-02-22T11:55:42.662Z,15.82
2023-02-22T11:58:50.630Z,17.98
2023-02-22T12:02:01.686Z,15.85
2023-02-22T12:05:00.767Z,15.63
2023-02-22T12:07:42.768Z,16.48
2023-02-22T12:10:53.656Z,16.98
2023-02-22T12:14:14.654Z,15.88
2023-02-22T12:17:26.655Z,17.13
2023-02-22T12:20:22.087Z,16.40
2023-02-22T12:23:38.652Z,15.88
2023-02-22T12:26:30.676Z,16.85
2023-02-22T12:29:45.642Z,16.80
2023-02-22T12:32:39.692Z,17.35
2023-02-22T12:35:35.667Z,17.98
2023-02-22T12:38:43.667Z,17.48
2023-02-22T12:41:44.660Z,16.88
2023-02-22T12:44:37.645Z,16.45
2023-02-22T12:47:39.721Z,16.90
2023-02-22T12:50:29.680Z,18.92
2023-02-22T12:53:26.667Z,17.80
2023-02-22T12:57:04.665Z,18.80
2023-02-22T13:00:02.692Z,16.52
2023-02-22T13:03:09.754Z,16.80
2023-02-22T13:06:07.683Z,16.42
2023-02-22T13:08:49.681Z,16.00
2023-02-22T13:12:06.712Z,18.75
2023-02-22T13:14:47.887Z,16.95
2023-02-22T13:18:01.483Z,17.10
2023-02-22T13:20:58.687Z,17.05
2023-02-22T13:24:12.703Z,16.65
2023-02-22T13:26:50.130Z,16.30
2023-02-22T13:29:43.685Z,16.60
2023-02-22T13:32:19.965Z,15.93
2023-02-22T13:35:29.685Z,16.17
2023-02-22T13:38:37.781Z,16.85
2023-02-22T13:41:57.679Z,15.95
2023-02-22T13:44:43.850Z,16.60
2023-02-22T13:47:48.702Z,18.02
2023-02-22T13:50:30.818Z,16.33
2023-02-22T13:53:22.687Z,15.63
2023-02-22T13:56:01.787Z,17.35
2023-02-22T13:58:57.704Z,15.60
2023-02-22T14:01:59.731Z,17.27
2023-02-22T14:04:48.708Z,17.70
2023-02-22T14:07:36.695Z,15.45
2023-02-22T14:10:59.722Z,16.10
2023-02-22T14:14:07.685Z,15.98
2023-02-22T14:16:40.839Z,15.95
2023-02-22T14:19:29.709Z,17.20
2023-02-22T14:22:08.727Z,16.45
2023-02-22T14:24:57.707Z,16.27
2023-02-22T14:27:30.786Z,16.60
2023-02-22T14:30:49.721Z,15.20
2023-02-22T14:34:04.730Z,15.45
2023-02-22T14:37:11.713Z,14.45
2023-02-22T14:40:05.731Z,16.23
2023-02-22T14:42:45.935Z,16.20
2023-02-22T14:45:56.747Z,16.40
2023-02-22T14:48:50.725Z,14.50
2023-02-22T14:51:46.707Z,15.18
2023-02-22T14:54:30.839Z,14.88
2023-02-22T14:57:30.813Z,15.38
2023-02-22T15:00:47.702Z,15.73
2023-02-22T15:03:51.395Z,15.77
2023-02-22T15:06:42.710Z,16.35
2023-02-22T15:09:33.634Z,13.40
2023-02-22T15:12:42.715Z,14.75
2023-02-22T15:15:37.732Z,17.08
2023-02-22T15:18:29.715Z,16.10
2023-02-22T15:21:13.424Z,14.50
2023-02-22T15:24:13.850Z,16.10
2023-02-22T15:27:02.068Z,14.68
2023-02-22T15:29:51.731Z,14.55
2023-02-22T15:32:34.480Z,15.00
2023-02-22T15:35:20.749Z,16.23
2023-02-22T15:38:00.752Z,16.25
2023-02-22T15:40:56.739Z,15.73
2023-02-22T15:43:44.734Z,15.27
2023-02-22T15:46:24.723Z,14.98
2023-02-22T15:49:31.746Z,14.60
2023-02-22T15:52:38.731Z,15.32
2023-02-22T15:55:28.760Z,15.60
2023-02-22T15:58:21.734Z,16.08
2023-02-22T16:01:22.781Z,15.85
2023-02-22T16:04:18.797Z,14.80
2023-02-22T16:07:23.758Z,15.07
2023-02-22T16:10:05.742Z,14.57
2023-02-22T16:12:52.740Z,15.77
2023-02-22T16:15:32.763Z,18.00
2023-02-22T16:18:47.752Z,15.15
2023-02-22T16:22:19.842Z,17.52
2023-02-22T16:24:52.850Z,16.58
2023-02-22T16:27:53.759Z,18.40
2023-02-22T16:30:35.008Z,17.50
2023-02-22T16:33:22.770Z,16.05
2023-02-22T16:36:03.813Z,15.18
2023-02-22T16:38:58.757Z,17.55
2023-02-22T16:41:45.975Z,18.45
2023-02-22T16:44:26.746Z,17.98
2023-02-22T16:47:17.768Z,19.92
2023-02-22T16:49:57.110Z,20.48
2023-02-22T16:52:46.790Z,20.70
2023-02-22T16:55:21.885Z,21.08
2023-02-22T16:58:10.752Z,20.75
2023-02-22T17:00:43.861Z,18.33
2023-02-22T17:03:32.771Z,18.33
2023-02-22T17:06:05.878Z,17.20
2023-02-22T17:08:52.782Z,15.90
2023-02-22T17:11:26.845Z,17.23
2023-02-22T17:14:13.777Z,16.33
2023-02-22T17:16:53.752Z,15.35
2023-02-22T17:19:40.778Z,16.25
2023-02-22T17:22:13.860Z,15.18
2023-02-22T17:25:00.774Z,16.58
2023-02-22T17:27:33.867Z,17.10
2023-02-22T17:30:24.169Z,17.52
2023-02-22T17:33:09.772Z,16.98
2023-02-22T17:35:56.787Z,17.17
2023-02-22T17:38:30.905Z,17.85
2023-02-22T17:41:17.773Z,17.73
2023-02-22T17:43:57.762Z,18.30
2023-02-22T17:46:46.789Z,16.23
2023-02-22T17:49:19.903Z,18.88
2023-02-22T17:52:06.787Z,20.30
2023-02-22T17:54:39.882Z,18.20
2023-02-22T17:57:26.813Z,17.70
2023-02-22T17:59:59.929Z,18.35
2023-02-22T18:02:47.859Z,19.55
2023-02-22T18:05:27.801Z,20.77
2023-02-22T18:08:21.766Z,21.52
2023-02-22T18:11:11.817Z,21.27
2023-02-22T18:13:51.772Z,20.15
2023-02-22T18:16:45.789Z,19.95
2023-02-22T18:19:39.797Z,20.23
2023-02-22T18:22:26.778Z,23.20
2023-02-22T18:25:01.917Z,23.42
2023-02-22T18:27:51.781Z,21.85
2023-02-22T18:30:25.994Z,22.98
2023-02-22T18:33:13.821Z,20.98
2023-02-22T18:35:52.557Z,22.73
2023-02-22T18:38:38.790Z,23.75
2023-02-22T18:41:12.951Z,25.13
2023-02-22T18:44:01.947Z,24.33
2023-02-22T18:46:34.923Z,25.92
2023-02-22T18:49:21.797Z,27.55
2023-02-22T18:52:01.790Z,25.33
2023-02-22T18:54:49.798Z,22.58
2023-02-22T18:57:23.000Z,20.77
2023-02-22T19:00:10.807Z,20.80
2023-02-22T19:02:50.845Z,21.35
2023-02-22T19:05:44.917Z,23.70
2023-02-22T19:08:24.798Z,21.45
2023-02-22T19:11:11.846Z,23.05
2023-02-22T19:13:47.747Z,21.95
2023-02-22T19:16:34.911Z,24.08
2023-02-22T19:19:11.915Z,25.48
2023-02-22T19:21:58.808Z,24.60
2023-02-22T19:24:38.810Z,29.08
2023-02-22T19:27:25.814Z,27.73
2023-02-22T19:30:05.826Z,25.90
2023-02-22T19:32:59.824Z,25.58
2023-02-22T19:35:54.852Z,23.23
2023-02-22T19:38:30.978Z,23.98
2023-02-22T19:41:25.807Z,23.02
2023-02-22T19:44:06.834Z,20.17
2023-02-22T19:46:53.820Z,21.98
2023-02-22T19:49:34.834Z,21.05
2023-02-22T19:52:28.856Z,21.67
2023-02-22T19:55:20.843Z,20.80
2023-02-22T19:57:53.942Z,21.55
2023-02-22T20:00:41.818Z,22.00
2023-02-22T20:03:16.100Z,20.73
2023-02-22T20:06:05.818Z,23.58
2023-02-22T20:08:48.800Z,24.17
2023-02-22T20:11:42.835Z,21.38
2023-02-22T20:14:34.847Z,21.20
2023-02-22T20:17:16.860Z,21.30
2023-02-22T20:20:11.818Z,23.02
2023-02-22T20:22:59.827Z,23.08
2023-02-22T20:25:41.840Z,23.92
2023-02-22T20:28:36.874Z,25.02
2023-02-22T20:31:31.916Z,22.73
2023-02-22T20:34:18.853Z,23.52
2023-02-22T20:36:52.541Z,25.33
2023-02-22T20:39:38.845Z,23.42
2023-02-22T20:42:18.977Z,20.38
2023-02-22T20:45:12.851Z,22.67
2023-02-22T20:48:00.849Z,20.67
2023-02-22T20:50:36.942Z,22.73
2023-02-22T20:53:23.851Z,20.70
2023-02-22T20:55:59.245Z,21.42
2023-02-22T20:58:45.884Z,22.58
2023-02-22T21:01:28.906Z,22.30
2023-02-22T21:04:23.896Z,22.83
2023-02-22T21:07:10.880Z,24.15
2023-02-22T21:09:43.972Z,23.70
2023-02-22T21:12:30.856Z,22.05
2023-02-22T21:15:04.019Z,21.75
2023-02-22T21:17:53.848Z,22.48
2023-02-22T21:20:26.980Z,22.80
2023-02-22T21:23:14.885Z,23.83
2023-02-22T21:26:01.217Z,23.45
2023-02-22T21:28:51.723Z,23.90
2023-02-22T21:31:27.165Z,21.38
2023-02-22T21:34:18.878Z,20.60
2023-02-22T21:36:53.386Z,21.20
2023-02-22T21:39:39.921Z,23.20
2023-02-22T21:42:19.874Z,23.85
2023-02-22T21:45:06.859Z,22.55
2023-02-22T21:47:46.881Z,22.42
2023-02-22T21:50:43.860Z,25.65
2023-02-22T21:53:30.868Z,24.10
2023-02-22T21:56:16.868Z,22.90
2023-02-22T21:59:36.899Z,22.23
2023-02-22T22:02:30.916Z,21.88
2023-02-22T22:05:20.974Z,23.15
2023-02-22T22:08:00.877Z,22.67
2023-02-22T22:10:47.873Z,23.55
2023-02-22T22:13:21.035Z,25.38
2023-02-22T22:16:14.975Z,25.58
2023-02-22T22:19:08.921Z,24.67
2023-02-22T22:22:02.978Z,25.30
2023-02-22T22:24:51.937Z,25.13
2023-02-22T22:27:24.986Z,25.35
2023-02-22T22:30:12.874Z,25.48
2023-02-22T22:32:52.879Z,25.63
2023-02-22T22:35:39.870Z,27.25
2023-02-22T22:38:20.898Z,26.48
2023-02-22T22:41:14.890Z,26.33
2023-02-22T22:44:02.905Z,24.73
2023-02-22T22:46:36.441Z,23.23
2023-02-22T22:49:22.888Z,22.40
2023-02-22T22:51:55.999Z,23.85
2023-02-22T22:54:43.899Z,23.38
2023-02-22T22:57:18.018Z,22.90
2023-02-22T23:00:04.895Z,21.85
2023-02-22T23:02:44.966Z,22.13
2023-02-22T23:05:34.919Z,24.70
2023-02-22T23:08:16.935Z,24.23
2023-02-22T23:11:03.926Z,23.77
2023-02-22T23:13:43.892Z,22.17
2023-02-22T23:16:38.894Z,23.33
2023-02-22T23:19:26.909Z,22.88
2023-02-22T23:22:06.912Z,25.55
2023-02-22T23:25:00.928Z,23.13
2023-02-22T23:27:48.904Z,23.38
2023-02-22T23:30:25.124Z,25.05
2023-02-22T23:33:11.947Z,25.40
2023-02-22T23:35:45.073Z,24.42
2023-02-22T23:38:31.982Z,23.17
2023-02-22T23:41:20.272Z,23.67
2023-02-22T23:44:06.939Z,23.70
2023-02-22T23:46:44.698Z,25.15
2023-02-22T23:49:33.980Z,25.70
2023-02-22T23:52:13.934Z,24.50
2023-02-22T23:55:11.933Z,24.20
2023-02-22T23:57:58.959Z,23.52
